createdAt,value
2023-02-22T00:01:51.233Z,12.27
2023-02-22T00:04:21.421Z,12.57
2023-02-22T00:06:50.859Z,11.93
2023-02-22T00:09:21.501Z,11.40
2023-02-22T00:11:50.132Z,13.63
2023-02-22T00:14:20.483Z,10.33
2023-02-22T00:16:51.698Z,10.63
2023-02-22T00:19:19.816Z,13.33
2023-02-22T00:21:54.053Z,14.47
2023-02-22T00:24:25.013Z,13.97
2023-02-22T00:26:55.660Z,26.77
2023-02-22T00:29:24.455Z,16.07
2023-02-22T00:31:54.325Z,18.27
2023-02-22T00:34:23.615Z,22.33
2023-02-22T00:36:51.800Z,19.70
2023-02-22T00:39:20.261Z,19.57
2023-02-22T00:41:49.818Z,16.63
2023-02-22T00:44:18.020Z,16.87
2023-02-22T00:46:46.027Z,22.40
2023-02-22T00:49:15.499Z,17.17
2023-02-22T00:51:43.714Z,36.47
2023-02-22T00:54:22.801Z,24.53
2023-02-22T00:57:02.014Z,23.87
2023-02-22T00:59:31.451Z,41.73
2023-02-22T01:01:59.728Z,21.10
2023-02-22T01:04:29.747Z,55.83
2023-02-22T01:07:00.564Z,38.00
2023-02-22T01:09:29.154Z,34.10
2023-02-22T01:11:58.122Z,26.03
2023-02-22T01:14:28.058Z,36.60
2023-02-22T01:16:57.075Z,29.90
2023-02-22T01:19:25.468Z,27.60
2023-02-22T01:21:55.542Z,39.70
2023-02-22T01:24:23.657Z,88.03
2023-02-22T01:26:53.625Z,32.17
2023-02-22T01:29:22.519Z,33.97
2023-02-22T01:31:55.639Z,38.23
2023-02-22T01:34:24.665Z,50.60
2023-02-22T01:36:54.059Z,55.23
2023-02-22T01:39:22.108Z,41.53
2023-02-22T01:41:50.291Z,46.97
2023-02-22T01:44:21.088Z,51.67
2023-02-22T01:46:49.265Z,38.53
2023-02-22T01:49:17.770Z,41.43
2023-02-22T01:51:49.938Z,38.53
2023-02-22T01:54:22.693Z,35.57
2023-02-22T01:56:55.511Z,35.00
2023-02-22T01:59:24.256Z,45.97
2023-02-22T02:01:52.623Z,43.43
2023-02-22T02:04:25.706Z,56.07
2023-02-22T02:07:11.752Z,45.17
2023-02-22T02:09:47.628Z,64.80
2023-02-22T02:12:18.615Z,60.50
2023-02-22T02:14:46.730Z,46.33
2023-02-22T02:17:17.733Z,36.93
2023-02-22T02:19:54.738Z,36.63
2023-02-22T02:22:36.948Z,37.77
2023-02-22T02:25:37.838Z,41.30
2023-02-22T02:28:45.662Z,36.27
2023-02-22T02:31:30.114Z,44.13
2023-02-22T02:34:04.080Z,50.93
2023-02-22T02:36:36.058Z,39.63
2023-02-22T02:39:10.322Z,25.03
2023-02-22T02:41:43.972Z,29.97
2023-02-22T02:44:17.068Z,29.73
2023-02-22T02:46:51.410Z,33.57
2023-02-22T02:49:26.743Z,62.00
2023-02-22T02:51:57.325Z,56.17
2023-02-22T02:54:26.061Z,44.60
2023-02-22T02:56:54.408Z,127.13
2023-02-22T02:59:27.779Z,113.73
2023-02-22T03:08:47.586Z,88.23
2023-02-22T03:11:20.450Z,133.20
2023-02-22T03:13:57.918Z,198.03
2023-02-22T03:16:34.909Z,241.50
2023-02-22T03:19:12.099Z,81.97
2023-02-22T03:21:52.633Z,71.53
2023-02-22T03:24:25.608Z,105.60
2023-02-22T03:27:00.114Z,82.67
2023-02-22T03:29:36.718Z,108.37
2023-02-22T03:32:08.995Z,73.77
2023-02-22T03:35:06.400Z,109.60
2023-02-22T03:38:15.814Z,109.83
2023-02-22T03:40:49.792Z,66.37
2023-02-22T03:43:22.810Z,95.00
2023-02-22T03:45:53.149Z,141.70
2023-02-22T03:48:26.852Z,50.37
2023-02-22T03:50:55.092Z,86.70
2023-02-22T03:53:25.443Z,69.27
2023-02-22T03:55:58.508Z,94.67
2023-02-22T03:58:32.377Z,106.57
2023-02-22T04:01:01.594Z,78.30
2023-02-22T04:03:31.626Z,63.90
2023-02-22T04:06:02.962Z,57.10
2023-02-22T04:08:31.236Z,105.17
2023-02-22T04:11:01.442Z,70.73
2023-02-22T04:13:30.003Z,53.67
2023-02-22T04:15:58.209Z,69.57
2023-02-22T04:18:29.552Z,75.63
2023-02-22T04:20:58.816Z,61.27
2023-02-22T04:23:27.001Z,131.97
2023-02-22T04:25:56.417Z,53.30
2023-02-22T04:28:27.506Z,61.93
2023-02-22T04:30:55.611Z,66.07
2023-02-22T04:33:24.340Z,53.13
2023-02-22T04:35:53.704Z,106.40
2023-02-22T04:38:22.843Z,59.03
2023-02-22T04:40:50.898Z,62.80
2023-02-22T04:43:19.546Z,54.97
2023-02-22T04:45:50.355Z,58.10
2023-02-22T04:48:18.913Z,62.57
2023-02-22T04:50:48.806Z,45.00
2023-02-22T04:53:17.237Z,51.23
2023-02-22T04:55:47.780Z,54.87
2023-02-22T04:58:35.773Z,64.67
2023-02-22T05:01:15.726Z,40.97
2023-02-22T05:03:46.205Z,37.50
2023-02-22T05:06:15.495Z,35.40
2023-02-22T05:08:45.864Z,33.57
2023-02-22T05:11:28.049Z,26.07
2023-02-22T05:14:04.449Z,21.93
2023-02-22T05:16:36.840Z,29.30
2023-02-22T05:19:05.762Z,20.50
2023-02-22T05:21:36.272Z,24.90
2023-02-22T05:24:12.154Z,30.80
2023-02-22T05:26:51.322Z,23.57
2023-02-22T05:29:21.806Z,24.73
2023-02-22T05:31:51.799Z,22.53
2023-02-22T05:34:20.621Z,25.97
2023-02-22T05:36:50.262Z,21.27
2023-02-22T05:39:18.883Z,14.67
2023-02-22T05:41:47.113Z,18.30
2023-02-22T05:44:15.345Z,20.27
2023-02-22T05:46:46.849Z,20.87
2023-02-22T05:49:17.335Z,21.40
2023-02-22T05:51:47.251Z,21.63
2023-02-22T05:57:43.474Z,16.63
2023-02-22T06:00:28.734Z,17.25
2023-02-22T06:02:57.838Z,18.17
2023-02-22T06:05:28.076Z,65.63
2023-02-22T06:11:37.605Z,17.63
2023-02-22T06:17:21.353Z,14.07
2023-02-22T06:19:59.421Z,12.70
2023-02-22T06:22:43.962Z,16.63
2023-02-22T06:25:24.266Z,14.27
2023-02-22T06:27:54.371Z,20.40
2023-02-22T06:37:03.833Z,17.90
2023-02-22T06:39:43.208Z,16.73
2023-02-22T06:42:19.166Z,23.37
2023-02-22T06:45:11.293Z,22.97
2023-02-22T06:51:17.945Z,60.13
2023-02-22T06:53:47.536Z,30.23
2023-02-22T06:56:19.109Z,40.43
2023-02-22T06:58:49.693Z,21.97
2023-02-22T07:01:24.766Z,51.23
2023-02-22T07:04:09.338Z,19.33
2023-02-22T07:06:41.757Z,33.50
2023-02-22T07:09:11.194Z,23.93
2023-02-22T07:12:02.727Z,29.43
2023-02-22T07:14:42.820Z,25.53
2023-02-22T07:17:17.929Z,30.63
2023-02-22T07:19:46.104Z,98.07
2023-02-22T07:22:17.711Z,33.33
2023-02-22T07:24:46.167Z,43.57
2023-02-22T07:28:01.440Z,33.53
2023-02-22T07:30:34.605Z,49.70
2023-02-22T07:33:05.545Z,21.70
2023-02-22T07:35:38.538Z,28.63
2023-02-22T07:38:33.070Z,16.40
2023-02-22T07:41:01.750Z,24.07
2023-02-22T07:43:31.990Z,11.27
2023-02-22T07:46:04.040Z,16.70
2023-02-22T07:48:33.797Z,14.93
2023-02-22T07:51:02.355Z,21.43
2023-02-22T07:53:37.400Z,14.07
2023-02-22T07:56:11.700Z,26.27
2023-02-22T07:58:56.498Z,12.07
2023-02-22T08:01:33.071Z,37.80
2023-02-22T08:04:05.439Z,43.43
2023-02-22T08:06:34.852Z,12.27
2023-02-22T08:15:53.088Z,17.00
2023-02-22T08:21:47.347Z,171.70
2023-02-22T08:24:15.906Z,47.13
2023-02-22T08:26:46.678Z,22.03
2023-02-22T08:29:27.306Z,23.93
2023-02-22T08:32:00.802Z,27.77
2023-02-22T08:34:41.244Z,38.80
2023-02-22T08:37:11.221Z,18.93
2023-02-22T08:39:40.856Z,52.23
2023-02-22T08:42:13.114Z,32.07
2023-02-22T08:44:44.364Z,20.27
2023-02-22T08:47:39.172Z,34.93
2023-02-22T08:51:00.304Z,41.57
2023-02-22T08:54:29.169Z,44.93
2023-02-22T08:57:00.761Z,20.00
2023-02-22T08:59:31.589Z,31.63
2023-02-22T09:05:02.406Z,15.97
2023-02-22T09:07:43.267Z,17.07
2023-02-22T09:10:35.304Z,17.83
2023-02-22T09:13:04.237Z,16.33
2023-02-22T09:15:33.218Z,16.37
2023-02-22T09:18:25.610Z,33.60
2023-02-22T09:21:00.835Z,15.37
2023-02-22T09:23:30.019Z,21.00
2023-02-22T09:26:18.357Z,24.93
2023-02-22T09:28:53.320Z,23.40
2023-02-22T09:31:22.320Z,21.97
2023-02-22T09:33:56.075Z,19.63
2023-02-22T09:36:29.445Z,19.80
2023-02-22T09:38:59.499Z,18.43
2023-02-22T09:41:57.986Z,17.90
2023-02-22T09:44:51.883Z,20.97
2023-02-22T09:47:32.413Z,20.27
2023-02-22T09:50:05.788Z,17.00
2023-02-22T09:52:42.592Z,76.23
2023-02-22T09:55:43.027Z,18.57
2023-02-22T09:58:23.347Z,21.07
2023-02-22T10:01:05.185Z,20.80
2023-02-22T10:03:50.218Z,21.03
2023-02-22T10:06:23.912Z,23.37
2023-02-22T10:09:07.934Z,23.33
2023-02-22T10:11:53.715Z,18.63
2023-02-22T10:15:06.344Z,20.80
2023-02-22T10:17:50.716Z,24.33
2023-02-22T10:20:50.018Z,19.07
2023-02-22T10:23:24.474Z,22.90
2023-02-22T10:26:25.983Z,23.77
2023-02-22T10:29:12.176Z,22.10
2023-02-22T10:31:47.757Z,24.67
2023-02-22T10:34:24.458Z,18.57
2023-02-22T10:36:58.585Z,26.93
2023-02-22T10:39:32.056Z,35.07
2023-02-22T10:42:12.317Z,21.20
2023-02-22T10:44:52.132Z,20.17
2023-02-22T10:47:35.775Z,19.30
2023-02-22T10:56:25.989Z,22.93
2023-02-22T10:59:08.105Z,18.20
2023-02-22T11:01:44.898Z,17.37
2023-02-22T11:04:27.887Z,19.23
2023-02-22T11:07:29.348Z,18.30
2023-02-22T11:10:00.180Z,21.93
2023-02-22T11:12:35.261Z,16.40
2023-02-22T11:15:36.203Z,19.03
2023-02-22T11:18:10.207Z,19.17
2023-02-22T11:20:41.324Z,15.57
2023-02-22T11:23:13.369Z,16.83
2023-02-22T11:25:45.014Z,17.47
2023-02-22T11:28:34.497Z,19.73
2023-02-22T11:31:54.683Z,16.90
2023-02-22T11:34:35.246Z,18.83
2023-02-22T11:37:34.177Z,15.30
2023-02-22T11:40:21.975Z,14.17
2023-02-22T11:43:34.179Z,14.63
2023-02-22T11:46:08.895Z,14.73
2023-02-22T11:48:45.549Z,13.23
2023-02-22T11:51:27.449Z,14.30
2023-02-22T11:54:14.192Z,13.80
2023-02-22T11:56:46.432Z,15.13
2023-02-22T12:18:00.112Z,13.97
2023-02-22T12:20:41.499Z,11.70
2023-02-22T12:23:34.360Z,15.00
2023-02-22T12:26:16.288Z,12.20
2023-02-22T12:29:08.201Z,12.33
2023-02-22T12:31:58.649Z,12.57
2023-02-22T12:38:22.334Z,10.83
2023-02-22T12:41:31.304Z,16.37
2023-02-22T12:44:20.822Z,12.70
2023-02-22T12:46:53.330Z,10.60
2023-02-22T12:49:29.816Z,9.40
2023-02-22T12:52:21.805Z,8.43
2023-02-22T12:59:03.512Z,8.07
2023-02-22T13:02:16.592Z,11.70
2023-02-22T13:04:45.121Z,17.87
2023-02-22T13:07:27.332Z,13.13
2023-02-22T13:11:05.437Z,9.87
2023-02-22T13:17:42.202Z,14.10
2023-02-22T13:20:20.429Z,7.93
2023-02-22T13:22:54.533Z,47.90
2023-02-22T13:25:28.825Z,11.90
2023-02-22T13:28:08.154Z,10.83
2023-02-22T13:30:40.197Z,9.23
2023-02-22T13:33:28.942Z,12.00
2023-02-22T13:36:13.528Z,11.23
2023-02-22T13:39:18.341Z,11.70
2023-02-22T13:42:01.244Z,9.97
2023-02-22T13:45:17.489Z,17.27
2023-02-22T13:48:15.886Z,7.80
2023-02-22T13:51:14.271Z,9.50
2023-02-22T13:53:58.222Z,9.50
2023-02-22T13:56:28.101Z,8.93
2023-02-22T13:58:59.073Z,6.40
2023-02-22T14:01:46.101Z,6.60
2023-02-22T14:04:34.886Z,21.00
2023-02-22T14:10:48.520Z,7.50
2023-02-22T14:13:18.968Z,6.50
2023-02-22T14:16:26.290Z,5.60
2023-02-22T14:22:29.229Z,8.60
2023-02-22T14:24:58.422Z,7.80
2023-02-22T14:27:53.872Z,4.90
2023-02-22T14:30:43.935Z,6.20
2023-02-22T14:40:13.158Z,5.17
2023-02-22T14:42:46.752Z,5.73
2023-02-22T14:45:23.482Z,5.27
2023-02-22T14:48:34.866Z,6.30
2023-02-22T14:51:21.389Z,11.93
2023-02-22T14:53:55.645Z,7.47
2023-02-22T14:56:28.610Z,5.73
2023-02-22T14:59:52.588Z,5.23
2023-02-22T15:09:28.516Z,9.73
2023-02-22T15:12:45.113Z,4.93
2023-02-22T15:22:04.132Z,5.43
2023-02-22T15:24:35.775Z,7.03
2023-02-22T15:30:23.529Z,7.37
2023-02-22T15:33:03.669Z,6.23
2023-02-22T15:36:02.168Z,5.80
2023-02-22T15:38:32.585Z,7.70
2023-02-22T15:41:10.145Z,6.07
2023-02-22T15:43:41.475Z,5.37
2023-02-22T15:46:12.761Z,7.83
2023-02-22T15:48:42.731Z,6.77
2023-02-22T15:51:19.916Z,7.20
2023-02-22T15:53:50.615Z,4.73
2023-02-22T15:56:24.914Z,5.33
2023-02-22T15:58:59.695Z,5.63
2023-02-22T16:01:28.368Z,7.60
2023-02-22T16:03:59.606Z,5.97
2023-02-22T16:06:36.018Z,6.80
2023-02-22T16:09:12.522Z,7.37
2023-02-22T16:11:45.624Z,4.50
2023-02-22T16:15:12.523Z,4.60
2023-02-22T16:18:01.925Z,7.20
2023-02-22T16:20:39.080Z,7.57
2023-02-22T16:23:40.066Z,5.37
2023-02-22T16:26:42.080Z,5.97
2023-02-22T16:29:47.774Z,6.17
2023-02-22T16:39:41.711Z,5.93
2023-02-22T16:42:26.946Z,8.17
2023-02-22T16:45:37.317Z,9.50
2023-02-22T16:51:28.933Z,6.53
2023-02-22T16:53:57.601Z,7.30
2023-02-22T16:56:42.984Z,5.97
2023-02-22T17:03:04.402Z,7.20
2023-02-22T17:05:36.933Z,15.10
2023-02-22T17:08:17.864Z,21.13
2023-02-22T17:10:47.985Z,14.23
2023-02-22T17:13:23.765Z,7.97
2023-02-22T17:15:59.785Z,9.00
2023-02-22T17:18:39.347Z,7.80
2023-02-22T17:25:15.295Z,10.63
2023-02-22T17:27:56.111Z,8.07
2023-02-22T17:30:25.900Z,8.50
2023-02-22T17:33:03.648Z,8.30
2023-02-22T17:36:04.568Z,7.60
2023-02-22T17:38:35.919Z,8.93
2023-02-22T17:41:15.938Z,7.00
2023-02-22T17:44:01.934Z,11.83
2023-02-22T17:46:44.675Z,7.40
2023-02-22T17:49:36.455Z,7.50
2023-02-22T17:55:41.115Z,13.00
2023-02-22T17:58:18.280Z,9.70
2023-02-22T18:00:51.898Z,11.57
2023-02-22T18:03:25.472Z,14.40
2023-02-22T18:12:03.830Z,10.47
2023-02-22T18:14:34.177Z,10.00
2023-02-22T18:17:02.376Z,9.63
2023-02-22T18:19:32.025Z,8.67
2023-02-22T18:22:03.507Z,11.67
2023-02-22T18:24:41.856Z,10.77
2023-02-22T18:29:43.901Z,8.33
2023-02-22T18:32:15.542Z,9.10
2023-02-22T18:34:53.152Z,9.60
2023-02-22T18:37:35.511Z,11.07
2023-02-22T18:40:19.513Z,10.50
2023-02-22T18:42:53.466Z,11.67
2023-02-22T18:45:30.135Z,9.77
2023-02-22T18:47:58.232Z,9.53
2023-02-22T18:57:39.960Z,10.37
2023-02-22T19:03:22.572Z,11.73
2023-02-22T19:05:54.062Z,9.90
2023-02-22T19:08:23.082Z,11.47
2023-02-22T19:10:54.498Z,11.53
2023-02-22T19:13:43.246Z,9.50
2023-02-22T19:16:24.199Z,10.33
2023-02-22T19:19:28.035Z,10.90
2023-02-22T19:21:59.678Z,10.80
2023-02-22T19:24:30.823Z,10.60
2023-02-22T19:30:21.432Z,9.33
2023-02-22T19:33:08.879Z,8.97
2023-02-22T19:35:51.293Z,9.07
2023-02-22T19:38:21.502Z,10.20
2023-02-22T19:40:53.504Z,11.70
2023-02-22T19:43:21.775Z,8.73
2023-02-22T19:45:50.094Z,9.00
2023-02-22T19:48:21.583Z,12.10
2023-02-22T19:51:16.147Z,11.17
2023-02-22T19:53:49.370Z,11.77
2023-02-22T19:56:37.483Z,11.03
2023-02-22T19:59:33.668Z,9.60
2023-02-22T20:02:09.212Z,10.77
2023-02-22T20:04:57.200Z,12.13
2023-02-22T20:07:36.065Z,11.37
2023-02-22T20:13:39.630Z,11.67
2023-02-22T20:16:15.780Z,15.00
2023-02-22T20:18:58.352Z,10.30
2023-02-22T20:21:58.844Z,18.13
2023-02-22T20:24:34.062Z,17.43
2023-02-22T20:28:00.535Z,18.17
2023-02-22T20:30:40.606Z,16.27
2023-02-22T20:36:27.743Z,14.93
2023-02-22T20:38:58.056Z,14.47
2023-02-22T20:41:27.772Z,19.27
2023-02-22T20:43:56.939Z,13.47
2023-02-22T20:46:29.047Z,11.83
2023-02-22T20:48:58.372Z,11.80
2023-02-22T20:51:28.176Z,12.70
2023-02-22T20:54:07.342Z,12.73
2023-02-22T20:56:45.880Z,10.97
2023-02-22T20:59:18.167Z,14.60
2023-02-22T21:01:51.377Z,16.03
2023-02-22T21:04:22.427Z,13.43
2023-02-22T21:06:52.229Z,13.10
2023-02-22T21:09:22.226Z,12.67
2023-02-22T21:11:50.698Z,14.77
2023-02-22T21:14:20.131Z,15.50
2023-02-22T21:16:52.357Z,14.73
2023-02-22T21:19:30.546Z,16.50
2023-02-22T21:22:11.686Z,13.27
2023-02-22T21:24:42.402Z,14.40
2023-02-22T21:27:13.594Z,13.43
2023-02-22T21:29:41.742Z,15.50
2023-02-22T21:32:15.153Z,13.50
2023-02-22T21:34:43.362Z,11.77
2023-02-22T21:37:12.512Z,13.00
2023-02-22T21:39:53.768Z,14.50
2023-02-22T21:42:21.851Z,11.27
2023-02-22T21:44:54.815Z,16.73
2023-02-22T21:47:25.329Z,12.30
2023-02-22T21:49:53.884Z,13.80
2023-02-22T21:52:25.822Z,14.57
2023-02-22T21:54:53.876Z,12.33
2023-02-22T21:57:21.937Z,12.13
2023-02-22T21:59:53.430Z,13.40
2023-02-22T22:02:22.193Z,15.33
2023-02-22T22:04:59.069Z,14.43
2023-02-22T22:07:33.366Z,12.27
2023-02-22T22:10:10.707Z,12.57
2023-02-22T22:12:42.094Z,13.97
2023-02-22T22:15:11.033Z,14.67
2023-02-22T22:17:39.130Z,15.50
2023-02-22T22:20:11.916Z,12.47
2023-02-22T22:22:41.628Z,15.67
2023-02-22T22:25:12.573Z,14.13
2023-02-22T22:27:41.695Z,11.53
2023-02-22T22:30:13.761Z,16.50
2023-02-22T22:32:41.966Z,17.60
2023-02-22T22:35:14.819Z,19.13
2023-02-22T22:37:43.699Z,14.83
2023-02-22T22:40:15.909Z,12.97
2023-02-22T22:42:45.336Z,12.43
2023-02-22T22:45:18.167Z,16.67
2023-02-22T22:47:46.789Z,15.87
2023-02-22T22:50:19.842Z,14.63
2023-02-22T22:52:48.992Z,16.77
2023-02-22T22:55:19.036Z,13.47
2023-02-22T22:57:47.377Z,11.53
2023-02-22T23:00:32.435Z,16.33
2023-02-22T23:03:00.629Z,12.97
2023-02-22T23:05:30.366Z,13.77
2023-02-22T23:08:04.971Z,20.33
2023-02-22T23:10:39.475Z,14.50
2023-02-22T23:13:10.549Z,14.40
2023-02-22T23:15:43.170Z,20.83
2023-02-22T23:18:15.445Z,15.67
2023-02-22T23:20:44.925Z,16.13
2023-02-22T23:23:14.839Z,14.60
2023-02-22T23:25:43.123Z,12.23
2023-02-22T23:28:14.785Z,15.03
2023-02-22T23:30:46.794Z,13.77
2023-02-22T23:33:15.627Z,15.13
2023-02-22T23:35:50.595Z,18.53
2023-02-22T23:38:18.609Z,20.97
2023-02-22T23:40:46.841Z,17.83
2023-02-22T23:43:17.048Z,20.67
2023-02-22T23:45:47.849Z,18.77
2023-02-22T23:48:20.369Z,22.87
2023-02-22T23:50:51.261Z,15.73
2023-02-22T23:53:19.700Z,17.63
2023-02-22T23:55:47.808Z,16.90
2023-02-22T23:58:15.865Z,21.10
